createdAt,value
2019-03-22T00:00:14.782Z,7.18
2019-03-22T00:01:14.800Z,7.16
2019-03-22T00:02:14.764Z,7.16
2019-03-22T00:03:14.779Z,7.15
2019-03-22T00:04:14.878Z,7.16
2019-03-22T00:05:14.747Z,7.12
2019-03-22T00:06:14.980Z,7.12
2019-03-22T00:07:14.801Z,7.09
2019-03-22T00:08:14.787Z,7.05
2019-03-22T00:09:14.762Z,7.02
2019-03-22T00:10:14.766Z,6.99
2019-03-22T00:11:14.765Z,6.99
2019-03-22T00:12:14.750Z,7.01
2019-03-22T00:13:14.741Z,6.98
2019-03-22T00:14:14.769Z,6.98
2019-03-22T00:15:14.745Z,6.98
2019-03-22T00:16:14.761Z,6.99
2019-03-22T00:17:14.751Z,6.98
2019-03-22T00:18:14.737Z,6.96
2019-03-22T00:19:14.776Z,6.96
2019-03-22T00:20:14.730Z,6.98
2019-03-22T00:21:14.750Z,6.98
2019-03-22T00:22:14.763Z,6.94
2019-03-22T00:23:14.804Z,6.92
2019-03-22T00:24:14.748Z,6.9
2019-03-22T00:25:14.758Z,6.88
2019-03-22T00:26:14.727Z,6.9
2019-03-22T00:27:17.111Z,6.88
2019-03-22T00:28:14.932Z,6.88
2019-03-22T00:29:14.757Z,6.85
2019-03-22T00:30:14.722Z,6.85
2019-03-22T00:31:14.729Z,6.84
2019-03-22T00:32:14.733Z,6.83
2019-03-22T00:33:14.737Z,6.8
2019-03-22T00:34:14.739Z,6.8
2019-03-22T00:35:14.850Z,6.78
2019-03-22T00:36:14.719Z,6.78
2019-03-22T00:37:14.723Z,6.73
2019-03-22T00:38:14.748Z,6.7
2019-03-22T00:39:14.754Z,6.68
2019-03-22T00:40:14.731Z,6.65
2019-03-22T00:41:14.748Z,6.65
2019-03-22T00:42:14.712Z,6.63
2019-03-22T00:43:14.708Z,6.61
2019-03-22T00:44:14.763Z,6.6
2019-03-22T00:45:14.764Z,6.54
2019-03-22T00:46:14.795Z,6.54
2019-03-22T00:47:14.702Z,6.5
2019-03-22T00:48:14.716Z,6.54
2019-03-22T00:49:14.815Z,6.51
2019-03-22T00:50:14.728Z,6.47
2019-03-22T00:51:14.709Z,6.39
2019-03-22T00:52:14.692Z,6.41
2019-03-22T00:53:14.744Z,6.37
2019-03-22T00:54:14.731Z,6.35
2019-03-22T00:55:14.742Z,6.29
2019-03-22T00:56:14.701Z,6.16
2019-03-22T00:57:14.702Z,6.2
2019-03-22T00:58:14.684Z,6.19
2019-03-22T00:59:14.706Z,6.06
2019-03-22T01:00:14.684Z,6.04
2019-03-22T01:01:14.736Z,6.11
2019-03-22T01:02:14.705Z,6.11
2019-03-22T01:03:14.761Z,6.16
2019-03-22T01:04:14.767Z,6.13
2019-03-22T01:05:14.687Z,6.19
2019-03-22T01:06:14.663Z,6.2
2019-03-22T01:07:14.685Z,6.19
2019-03-22T01:08:14.690Z,6.2
2019-03-22T01:09:14.683Z,6.19
2019-03-22T01:10:14.707Z,6.15
2019-03-22T01:11:16.535Z,6.15
2019-03-22T01:12:14.729Z,6.12
2019-03-22T01:13:14.728Z,6.12
2019-03-22T01:14:14.676Z,6.11
2019-03-22T01:15:14.718Z,6.08
2019-03-22T01:16:14.673Z,5.98
2019-03-22T01:17:14.680Z,5.92
2019-03-22T01:18:14.658Z,5.97
2019-03-22T01:19:14.657Z,5.92
2019-03-22T01:20:14.648Z,5.91
2019-03-22T01:21:14.678Z,5.9
2019-03-22T01:22:14.663Z,5.9
2019-03-22T01:23:14.689Z,5.87
2019-03-22T01:24:14.668Z,5.88
2019-03-22T01:25:14.650Z,5.9
2019-03-22T01:26:14.683Z,5.85
2019-03-22T01:27:14.714Z,5.85
2019-03-22T01:28:14.665Z,5.87
2019-03-22T01:29:14.636Z,5.85
2019-03-22T01:30:14.648Z,5.87
2019-03-22T01:31:14.635Z,5.87
2019-03-22T01:32:14.801Z,5.87
2019-03-22T01:33:14.651Z,5.84
2019-03-22T01:34:14.625Z,5.84
2019-03-22T01:35:14.669Z,5.87
2019-03-22T01:36:14.632Z,5.87
2019-03-22T01:37:14.648Z,5.85
2019-03-22T01:38:14.634Z,5.85
2019-03-22T01:39:14.640Z,5.84
2019-03-22T01:40:14.686Z,5.87
2019-03-22T01:41:14.647Z,5.84
2019-03-22T01:42:14.630Z,5.84
2019-03-22T01:43:14.639Z,5.83
2019-03-22T01:44:14.699Z,5.81
2019-03-22T01:45:14.643Z,5.8
2019-03-22T01:46:14.634Z,5.8
2019-03-22T01:47:14.626Z,5.81
2019-03-22T01:48:14.642Z,5.78
2019-03-22T01:49:14.639Z,5.78
2019-03-22T01:50:14.655Z,5.78
2019-03-22T01:51:14.625Z,5.73
2019-03-22T01:52:14.595Z,5.71
2019-03-22T01:53:14.653Z,5.71
2019-03-22T01:54:14.640Z,5.67
2019-03-22T01:55:14.630Z,5.59
2019-03-22T01:56:14.646Z,5.6
2019-03-22T01:57:14.604Z,5.6
2019-03-22T01:58:14.628Z,5.59
2019-03-22T01:59:14.606Z,5.57
2019-03-22T02:00:14.607Z,5.59
2019-03-22T02:01:14.603Z,5.56
2019-03-22T02:02:14.595Z,5.57
2019-03-22T02:03:14.670Z,5.59
2019-03-22T02:04:14.654Z,5.56
2019-03-22T02:05:14.614Z,5.56
2019-03-22T02:06:14.594Z,5.57
2019-03-22T02:07:14.650Z,5.57
2019-03-22T02:08:14.616Z,5.57
2019-03-22T02:09:14.613Z,5.59
2019-03-22T02:10:14.599Z,5.59
2019-03-22T02:11:14.583Z,5.57
2019-03-22T02:12:14.653Z,5.59
2019-03-22T02:13:14.637Z,5.51
2019-03-22T02:14:14.588Z,5.51
2019-03-22T02:15:14.613Z,5.39
2019-03-22T02:16:14.949Z,5.42
2019-03-22T02:17:14.583Z,5.42
2019-03-22T02:18:14.590Z,5.43
2019-03-22T02:19:14.570Z,5.43
2019-03-22T02:20:14.579Z,5.42
2019-03-22T02:21:14.579Z,5.39
2019-03-22T02:22:14.605Z,5.43
2019-03-22T02:23:14.576Z,5.39
2019-03-22T02:24:14.567Z,5.4
2019-03-22T02:25:14.569Z,5.39
2019-03-22T02:26:14.580Z,5.35
2019-03-22T02:27:14.586Z,5.16
2019-03-22T02:28:14.613Z,5.19
2019-03-22T02:29:14.664Z,5.21
2019-03-22T02:30:14.611Z,5.15
2019-03-22T02:31:14.558Z,5.14
2019-03-22T02:32:14.551Z,5.14
2019-03-22T02:33:14.570Z,5.14
2019-03-22T02:34:14.591Z,5.14
2019-03-22T02:35:29.813Z,5.11
2019-03-22T02:36:14.585Z,5.15
2019-03-22T02:37:14.665Z,5.16
2019-03-22T02:38:14.606Z,5.14
2019-03-22T02:39:14.772Z,5.12
2019-03-22T02:40:14.650Z,5.1
2019-03-22T02:41:14.579Z,5.08
2019-03-22T02:42:14.575Z,5.05
2019-03-22T02:43:14.540Z,4.98
2019-03-22T02:44:14.574Z,4.93
2019-03-22T02:45:14.639Z,4.88
2019-03-22T02:46:15.955Z,4.87
2019-03-22T02:47:14.586Z,4.88
2019-03-22T02:48:14.572Z,4.87
2019-03-22T02:49:14.539Z,4.86
2019-03-22T02:50:20.648Z,4.86
2019-03-22T02:51:14.549Z,4.8
2019-03-22T02:52:14.570Z,4.73
2019-03-22T02:53:14.565Z,4.77
2019-03-22T02:54:14.562Z,4.77
2019-03-22T02:55:14.542Z,4.7
2019-03-22T02:56:14.933Z,4.67
2019-03-22T02:57:14.540Z,4.66
2019-03-22T02:58:21.587Z,4.63
2019-03-22T02:59:14.930Z,4.69
2019-03-22T03:00:14.562Z,4.66
2019-03-22T03:01:14.506Z,4.67
2019-03-22T03:02:14.552Z,4.67
2019-03-22T03:03:14.535Z,4.69
2019-03-22T03:04:14.539Z,4.67
2019-03-22T03:05:14.529Z,4.69
2019-03-22T03:06:14.517Z,4.7
2019-03-22T03:07:14.521Z,4.67
2019-03-22T03:08:14.566Z,4.66
2019-03-22T03:09:14.530Z,4.66
2019-03-22T03:10:14.559Z,4.67
2019-03-22T03:11:14.484Z,4.69
2019-03-22T03:12:14.518Z,4.67
2019-03-22T03:13:14.575Z,4.66
2019-03-22T03:14:14.500Z,4.65
2019-03-22T03:15:14.526Z,4.66
2019-03-22T03:16:14.540Z,4.65
2019-03-22T03:17:14.502Z,4.63
2019-03-22T03:18:14.536Z,4.62
2019-03-22T03:19:14.518Z,4.6
2019-03-22T03:20:14.590Z,4.62
2019-03-22T03:21:14.581Z,4.62
2019-03-22T03:22:14.496Z,4.62
2019-03-22T03:23:14.528Z,4.63
2019-03-22T03:24:14.517Z,4.6
2019-03-22T03:25:15.854Z,4.6
2019-03-22T03:26:14.542Z,4.57
2019-03-22T03:27:14.480Z,4.57
2019-03-22T03:28:14.470Z,4.59
2019-03-22T03:29:14.522Z,4.57
2019-03-22T03:30:14.521Z,4.53
2019-03-22T03:31:14.515Z,4.43
2019-03-22T03:32:14.473Z,4.36
2019-03-22T03:33:14.533Z,4.36
2019-03-22T03:34:14.541Z,4.33
2019-03-22T03:35:14.724Z,4.24
2019-03-22T03:36:14.490Z,4.17
2019-03-22T03:37:14.530Z,4.19
2019-03-22T03:38:14.582Z,4.22
2019-03-22T03:39:14.473Z,4.19
2019-03-22T03:40:14.562Z,4.19
2019-03-22T03:41:14.549Z,4.18
2019-03-22T03:42:14.507Z,4.11
2019-03-22T03:43:14.615Z,4.12
2019-03-22T03:44:14.520Z,4.14
2019-03-22T03:45:14.555Z,4.15
2019-03-22T03:46:14.508Z,4.15
2019-03-22T03:47:14.494Z,4.15
2019-03-22T03:48:14.495Z,4.18
2019-03-22T03:49:14.463Z,4.17
2019-03-22T03:50:14.484Z,4.17
2019-03-22T03:51:14.442Z,4.19
2019-03-22T03:52:14.455Z,4.21
2019-03-22T03:53:14.458Z,4.19
2019-03-22T03:54:14.436Z,4.22
2019-03-22T03:55:14.489Z,4.22
2019-03-22T03:56:14.474Z,4.25
2019-03-22T03:57:14.463Z,4.21
2019-03-22T03:58:14.435Z,4.21
2019-03-22T03:59:14.438Z,4.22
2019-03-22T04:00:14.479Z,4.17
2019-03-22T04:01:14.441Z,4.18
2019-03-22T04:02:14.466Z,4.12
2019-03-22T04:03:15.317Z,4.1
2019-03-22T04:04:14.850Z,4.07
2019-03-22T04:05:15.049Z,4.05
2019-03-22T04:06:14.471Z,4.01
2019-03-22T04:07:14.475Z,4.02
2019-03-22T04:08:14.456Z,4.04
2019-03-22T04:09:14.457Z,4.04
2019-03-22T04:10:14.423Z,4.04
2019-03-22T04:11:14.461Z,4.01
2019-03-22T04:12:14.578Z,4.05
2019-03-22T04:13:14.438Z,4.05
2019-03-22T04:14:14.476Z,4.02
2019-03-22T04:15:14.425Z,4
2019-03-22T04:16:14.476Z,3.98
2019-03-22T04:17:14.671Z,3.98
2019-03-22T04:18:14.446Z,3.98
2019-03-22T04:19:14.438Z,3.98
2019-03-22T04:20:14.382Z,3.97
2019-03-22T04:21:14.388Z,3.98
2019-03-22T04:22:14.452Z,4
2019-03-22T04:23:14.436Z,3.98
2019-03-22T04:24:14.413Z,4.01
2019-03-22T04:25:14.456Z,4
2019-03-22T04:26:14.764Z,4.02
2019-03-22T04:27:14.428Z,4.01
2019-03-22T04:28:14.427Z,4
2019-03-22T04:29:14.395Z,4
2019-03-22T04:30:14.429Z,3.98
2019-03-22T04:31:14.380Z,4
2019-03-22T04:32:14.449Z,4
2019-03-22T04:33:14.417Z,3.97
2019-03-22T04:34:14.363Z,3.94
2019-03-22T04:35:14.430Z,3.94
2019-03-22T04:36:14.400Z,3.94
2019-03-22T04:37:14.394Z,3.89
2019-03-22T04:38:14.375Z,3.9
2019-03-22T04:39:14.377Z,3.91
2019-03-22T04:40:14.438Z,3.93
2019-03-22T04:41:14.361Z,3.9
2019-03-22T04:42:14.398Z,3.91
2019-03-22T04:43:14.411Z,3.91
2019-03-22T04:44:14.369Z,3.93
2019-03-22T04:45:14.367Z,3.96
2019-03-22T04:46:14.366Z,3.94
2019-03-22T04:47:14.356Z,3.96
2019-03-22T04:48:14.516Z,3.97
2019-03-22T04:49:14.361Z,3.96
2019-03-22T04:50:14.376Z,3.96
2019-03-22T04:51:14.349Z,3.98
2019-03-22T04:52:14.348Z,3.96
2019-03-22T04:53:14.492Z,3.96
2019-03-22T04:54:14.373Z,3.98
2019-03-22T04:55:14.351Z,3.94
2019-03-22T04:56:14.384Z,3.96
2019-03-22T04:57:14.375Z,3.94
2019-03-22T04:58:14.396Z,3.93
2019-03-22T04:59:19.808Z,3.96
2019-03-22T05:00:14.412Z,3.93
2019-03-22T05:01:14.368Z,3.94
2019-03-22T05:02:14.342Z,3.94
2019-03-22T05:03:14.394Z,3.91
2019-03-22T05:04:14.358Z,3.91
2019-03-22T05:05:14.371Z,3.93
2019-03-22T05:06:14.349Z,3.91
2019-03-22T05:07:14.348Z,3.84
2019-03-22T05:08:14.333Z,3.83
2019-03-22T05:09:14.312Z,3.86
2019-03-22T05:10:14.408Z,3.86
2019-03-22T05:11:14.331Z,3.86
2019-03-22T05:12:14.417Z,3.84
2019-03-22T05:13:14.340Z,3.84
2019-03-22T05:14:14.340Z,3.84
2019-03-22T05:15:14.308Z,3.84
2019-03-22T05:16:14.311Z,3.84
2019-03-22T05:17:14.366Z,3.84
2019-03-22T05:18:14.361Z,3.82
2019-03-22T05:19:14.451Z,3.84
2019-03-22T05:20:14.306Z,3.82
2019-03-22T05:21:14.388Z,3.8
2019-03-22T05:22:14.311Z,3.82
2019-03-22T05:23:14.357Z,3.8
2019-03-22T05:24:14.398Z,3.74
2019-03-22T05:25:14.304Z,3.74
2019-03-22T05:26:14.384Z,3.69
2019-03-22T05:27:14.334Z,3.7
2019-03-22T05:28:14.334Z,3.69
2019-03-22T05:29:14.302Z,3.7
2019-03-22T05:30:14.298Z,3.66
2019-03-22T05:31:14.311Z,3.69
2019-03-22T05:32:14.693Z,3.72
2019-03-22T05:33:14.309Z,3.69
2019-03-22T05:34:14.345Z,3.69
2019-03-22T05:35:14.329Z,3.67
2019-03-22T05:36:14.333Z,3.7
2019-03-22T05:37:14.363Z,3.73
2019-03-22T05:38:14.295Z,3.74
2019-03-22T05:39:14.315Z,3.73
2019-03-22T05:40:14.264Z,3.73
2019-03-22T05:41:14.291Z,3.73
2019-03-22T05:42:14.281Z,3.72
2019-03-22T05:43:14.306Z,3.7
2019-03-22T05:44:14.257Z,3.72
2019-03-22T05:45:14.299Z,3.7
2019-03-22T05:46:14.285Z,3.7
2019-03-22T05:47:14.273Z,3.69
2019-03-22T05:48:14.282Z,3.69
2019-03-22T05:49:14.272Z,3.67
2019-03-22T05:50:14.337Z,3.69
2019-03-22T05:51:14.298Z,3.73
2019-03-22T05:52:14.320Z,3.76
2019-03-22T05:53:14.726Z,3.76
2019-03-22T05:54:14.315Z,3.77
2019-03-22T05:55:14.334Z,3.79
2019-03-22T05:56:14.244Z,3.79
2019-03-22T05:57:14.309Z,3.82
2019-03-22T05:58:14.252Z,3.82
2019-03-22T05:59:14.272Z,3.83
2019-03-22T06:00:14.297Z,3.84
2019-03-22T06:01:14.280Z,3.83
2019-03-22T06:02:14.259Z,3.87
2019-03-22T06:03:14.261Z,3.84
2019-03-22T06:04:14.247Z,3.84
2019-03-22T06:05:14.239Z,3.87
2019-03-22T06:06:14.268Z,3.89
2019-03-22T06:07:14.239Z,3.9
2019-03-22T06:08:14.267Z,3.91
2019-03-22T06:09:14.305Z,3.93
2019-03-22T06:10:14.252Z,3.94
2019-03-22T06:11:14.238Z,3.93
2019-03-22T06:12:14.233Z,3.96
2019-03-22T06:13:14.259Z,3.96
2019-03-22T06:14:14.260Z,3.96
2019-03-22T06:15:14.461Z,3.96
2019-03-22T06:16:14.246Z,3.96
2019-03-22T06:17:14.237Z,3.98
2019-03-22T06:18:14.280Z,3.98
2019-03-22T06:19:14.231Z,4.01
2019-03-22T06:20:14.276Z,4.04
2019-03-22T06:21:14.211Z,4.05
2019-03-22T06:22:14.231Z,4.1
2019-03-22T06:23:14.263Z,4.1
2019-03-22T06:24:14.254Z,4.14
2019-03-22T06:25:14.288Z,4.15
2019-03-22T06:26:15.434Z,4.19
2019-03-22T06:27:14.353Z,4.24
2019-03-22T06:28:14.272Z,4.26
2019-03-22T06:29:14.378Z,4.3
2019-03-22T06:30:14.301Z,4.32
2019-03-22T06:31:14.263Z,4.33
2019-03-22T06:32:14.239Z,4.39
2019-03-22T06:33:14.262Z,4.4
2019-03-22T06:34:14.258Z,4.42
2019-03-22T06:35:14.207Z,4.45
2019-03-22T06:36:14.248Z,4.48
2019-03-22T06:37:14.257Z,4.49
2019-03-22T06:38:14.223Z,4.52
2019-03-22T06:39:14.211Z,4.55
2019-03-22T06:40:14.230Z,4.55
2019-03-22T06:41:14.199Z,4.59
2019-03-22T06:42:14.183Z,4.65
2019-03-22T06:43:14.280Z,4.66
2019-03-22T06:44:14.240Z,4.72
2019-03-22T06:45:14.387Z,4.74
2019-03-22T06:46:14.241Z,4.83
2019-03-22T06:47:14.219Z,4.86
2019-03-22T06:48:14.366Z,4.93
2019-03-22T06:49:14.317Z,4.97
2019-03-22T06:50:14.248Z,5.02
2019-03-22T06:51:14.195Z,5.08
2019-03-22T06:52:14.255Z,5.11
2019-03-22T06:53:14.193Z,5.15
2019-03-22T06:54:14.203Z,5.18
2019-03-22T06:55:14.181Z,5.21
2019-03-22T06:56:14.163Z,5.26
2019-03-22T06:57:14.298Z,5.29
2019-03-22T06:58:14.649Z,5.28
2019-03-22T06:59:16.026Z,5.33
2019-03-22T07:00:14.246Z,5.36
2019-03-22T07:01:14.260Z,5.35
2019-03-22T07:02:14.351Z,5.45
2019-03-22T07:03:14.154Z,5.38
2019-03-22T07:04:14.238Z,5.35
2019-03-22T07:05:14.188Z,5.33
2019-03-22T07:06:14.221Z,5.36
2019-03-22T07:07:14.239Z,5.35
2019-03-22T07:08:14.164Z,5.39
2019-03-22T07:09:14.158Z,5.39
2019-03-22T07:10:14.205Z,5.36
2019-03-22T07:11:14.153Z,5.33
2019-03-22T07:12:14.198Z,5.33
2019-03-22T07:13:14.254Z,5.38
2019-03-22T07:14:14.176Z,5.4
2019-03-22T07:15:14.196Z,5.4
2019-03-22T07:16:14.152Z,5.42
2019-03-22T07:17:14.158Z,5.46
2019-03-22T07:18:14.212Z,5.45
2019-03-22T07:19:14.242Z,5.43
2019-03-22T07:20:14.383Z,5.46
2019-03-22T07:21:14.189Z,5.47
2019-03-22T07:22:14.289Z,5.54
2019-03-22T07:23:14.134Z,5.56
2019-03-22T07:24:14.154Z,5.6
2019-03-22T07:25:14.181Z,5.63
2019-03-22T07:26:14.129Z,5.66
2019-03-22T07:27:14.126Z,5.69
2019-03-22T07:28:14.209Z,5.74
2019-03-22T07:29:14.184Z,5.77
2019-03-22T07:30:19.491Z,5.81
2019-03-22T07:31:14.149Z,5.88
2019-03-22T07:32:14.161Z,5.92
2019-03-22T07:33:14.146Z,5.97
2019-03-22T07:34:14.165Z,6.04
2019-03-22T07:35:14.158Z,6.15
2019-03-22T07:36:14.106Z,6.19
2019-03-22T07:37:14.155Z,6.35
2019-03-22T07:38:14.180Z,6.43
2019-03-22T07:39:14.138Z,6.44
2019-03-22T07:40:14.211Z,6.53
2019-03-22T07:41:14.524Z,6.58
2019-03-22T07:42:14.139Z,6.64
2019-03-22T07:43:14.144Z,6.74
2019-03-22T07:44:14.122Z,6.78
2019-03-22T07:45:14.115Z,6.83
2019-03-22T07:46:15.958Z,6.87
2019-03-22T07:47:14.111Z,6.9
2019-03-22T07:48:14.118Z,6.95
2019-03-22T07:49:14.085Z,7.13
2019-03-22T07:50:14.096Z,7.16
2019-03-22T07:51:14.176Z,7.18
2019-03-22T07:52:14.148Z,7.19
2019-03-22T07:53:14.122Z,7.26
2019-03-22T07:54:14.135Z,7.26
2019-03-22T07:55:14.130Z,7.3
2019-03-22T07:56:14.120Z,7.33
2019-03-22T07:57:14.102Z,7.43
2019-03-22T07:58:14.087Z,7.68
2019-03-22T07:59:14.086Z,7.88
2019-03-22T08:00:14.071Z,7.85
2019-03-22T08:01:14.104Z,7.93
2019-03-22T08:02:14.185Z,7.99
2019-03-22T08:03:14.366Z,8.1
2019-03-22T08:04:14.958Z,8.3
2019-03-22T08:05:14.098Z,8.34
2019-03-22T08:06:14.106Z,8.38
2019-03-22T08:07:14.297Z,8.41
2019-03-22T08:08:14.090Z,8.58
2019-03-22T08:09:14.077Z,8.58
2019-03-22T08:10:14.094Z,8.69
2019-03-22T08:11:14.069Z,8.78
2019-03-22T08:12:14.205Z,8.89
2019-03-22T08:13:14.157Z,8.92
2019-03-22T08:14:16.730Z,9
2019-03-22T08:15:14.053Z,9.1
2019-03-22T08:16:14.071Z,9.14
2019-03-22T08:17:14.118Z,9.16
2019-03-22T08:18:14.046Z,9.14
2019-03-22T08:19:14.069Z,9.21
2019-03-22T08:20:14.130Z,9.34
2019-03-22T08:21:14.071Z,9.3
2019-03-22T08:22:14.060Z,9.31
2019-03-22T08:23:14.181Z,9.35
2019-03-22T08:24:14.426Z,9.37
2019-03-22T08:25:14.206Z,9.44
2019-03-22T08:26:14.046Z,9.52
2019-03-22T08:27:14.055Z,9.54
2019-03-22T08:28:14.294Z,9.57
2019-03-22T08:29:14.100Z,9.65
2019-03-22T08:30:14.123Z,9.66
2019-03-22T08:31:14.121Z,9.69
2019-03-22T08:32:14.061Z,9.7
2019-03-22T08:33:14.118Z,9.79
2019-03-22T08:34:14.084Z,9.83
2019-03-22T08:35:14.131Z,9.92
2019-03-22T08:36:15.278Z,9.96
2019-03-22T08:37:14.117Z,10
2019-03-22T08:38:14.131Z,10.03
2019-03-22T08:39:14.129Z,10.02
2019-03-22T08:40:14.049Z,10.06
2019-03-22T08:41:14.063Z,10.13
2019-03-22T08:42:14.045Z,10.1
2019-03-22T08:43:14.072Z,10.2
2019-03-22T08:44:14.147Z,10.24
2019-03-22T08:45:14.082Z,10.24
2019-03-22T08:46:14.191Z,10.25
2019-03-22T08:47:14.132Z,10.35
2019-03-22T08:48:14.044Z,10.37
2019-03-22T08:49:14.230Z,10.42
2019-03-22T08:50:14.037Z,10.48
2019-03-22T08:51:14.057Z,10.53
2019-03-22T08:52:14.053Z,10.56
2019-03-22T08:53:14.033Z,10.61
2019-03-22T08:54:14.088Z,10.59
2019-03-22T08:55:14.076Z,10.64
2019-03-22T08:56:14.148Z,10.61
2019-03-22T08:57:14.030Z,10.66
2019-03-22T08:58:14.051Z,10.75
2019-03-22T08:59:14.037Z,10.78
2019-03-22T09:00:14.096Z,10.76
2019-03-22T09:01:14.003Z,10.86
2019-03-22T09:02:14.026Z,10.93
2019-03-22T09:03:13.988Z,10.87
2019-03-22T09:04:13.985Z,10.94
2019-03-22T09:05:13.979Z,10.99
2019-03-22T09:06:13.999Z,11.01
2019-03-22T09:07:14.135Z,11.08
2019-03-22T09:08:16.544Z,11.07
2019-03-22T09:09:14.053Z,11.1
2019-03-22T09:10:13.981Z,11.1
2019-03-22T09:11:14.094Z,11.17
2019-03-22T09:12:14.028Z,11.18
2019-03-22T09:13:14.206Z,11.22
2019-03-22T09:14:15.133Z,11.31
2019-03-22T09:15:14.049Z,11.3
2019-03-22T09:16:14.023Z,11.34
2019-03-22T09:17:14.028Z,11.41
2019-03-22T09:18:16.026Z,11.44
2019-03-22T09:19:14.009Z,11.44
2019-03-22T09:20:14.117Z,11.47
2019-03-22T09:21:13.990Z,11.47
2019-03-22T09:22:14.022Z,11.54
2019-03-22T09:23:14.054Z,11.58
2019-03-22T09:24:13.965Z,11.62
2019-03-22T09:25:14.023Z,11.62
2019-03-22T09:26:13.945Z,11.68
2019-03-22T09:27:14.046Z,11.68
2019-03-22T09:28:14.019Z,11.69
2019-03-22T09:29:14.057Z,11.75
2019-03-22T09:30:13.971Z,11.77
2019-03-22T09:31:13.991Z,11.8
2019-03-22T09:32:13.931Z,11.86
2019-03-22T09:33:13.990Z,11.87
2019-03-22T09:34:14.039Z,11.92
2019-03-22T09:35:14.041Z,11.94
2019-03-22T09:36:13.975Z,11.97
2019-03-22T09:37:13.950Z,12.04
2019-03-22T09:38:14.079Z,12.1
2019-03-22T09:39:13.938Z,12.16
2019-03-22T09:40:13.988Z,12.14
2019-03-22T09:41:13.982Z,12.18
2019-03-22T09:42:13.950Z,12.23
2019-03-22T09:43:14.006Z,12.23
2019-03-22T09:44:14.032Z,12.25
2019-03-22T09:45:14.878Z,12.34
2019-03-22T09:46:14.011Z,12.37
2019-03-22T09:47:17.060Z,12.41
2019-03-22T09:48:14.012Z,12.38
2019-03-22T09:49:13.955Z,12.53
2019-03-22T09:50:14.112Z,12.52
2019-03-22T09:51:14.092Z,12.55
2019-03-22T09:52:14.027Z,12.57
2019-03-22T09:53:14.083Z,12.67
2019-03-22T09:54:14.031Z,12.72
2019-03-22T09:55:14.852Z,12.76
2019-03-22T09:56:14.270Z,12.8
2019-03-22T09:57:13.993Z,12.77
2019-03-22T09:58:14.050Z,12.8
2019-03-22T09:59:14.052Z,12.8
2019-03-22T10:00:13.933Z,12.83
2019-03-22T10:01:24.617Z,12.88
2019-03-22T10:02:13.946Z,12.87
2019-03-22T10:03:14.037Z,12.86
2019-03-22T10:04:14.049Z,12.88
2019-03-22T10:05:13.934Z,12.88
2019-03-22T10:06:13.952Z,12.96
2019-03-22T10:07:13.989Z,13
2019-03-22T10:09:13.938Z,13.11
2019-03-22T10:10:13.997Z,13.22
2019-03-22T10:11:14.260Z,13.25
2019-03-22T10:12:14.288Z,13.32
2019-03-22T10:13:13.931Z,13.36
2019-03-22T10:14:13.957Z,13.45
2019-03-22T10:15:13.962Z,13.47
2019-03-22T10:16:13.968Z,13.52
2019-03-22T10:17:14.069Z,13.59
2019-03-22T10:18:13.884Z,13.56
2019-03-22T10:19:13.904Z,13.62
2019-03-22T10:20:13.986Z,13.66
2019-03-22T10:21:23.176Z,13.74
2019-03-22T10:22:13.940Z,13.76
2019-03-22T10:23:13.919Z,13.77
2019-03-22T10:24:13.959Z,13.82
2019-03-22T10:25:13.948Z,13.89
2019-03-22T10:26:13.941Z,13.94
2019-03-22T10:27:16.494Z,13.97
2019-03-22T10:28:14.145Z,14
2019-03-22T10:29:13.908Z,14.02
2019-03-22T10:30:13.914Z,14.02
2019-03-22T10:31:14.087Z,14.11
2019-03-22T10:32:13.913Z,14.12
2019-03-22T10:33:23.375Z,14.18
2019-03-22T10:34:13.934Z,14.19
2019-03-22T10:35:26.831Z,14.25
2019-03-22T10:36:13.992Z,14.25
2019-03-22T10:37:13.938Z,14.25
2019-03-22T10:38:30.767Z,14.29
2019-03-22T10:39:13.891Z,14.36
2019-03-22T10:40:13.947Z,14.36
2019-03-22T10:41:13.879Z,14.38
2019-03-22T10:42:13.912Z,14.39
2019-03-22T10:43:13.899Z,14.38
2019-03-22T10:44:13.968Z,14.42
2019-03-22T10:45:13.858Z,14.46
2019-03-22T10:46:13.935Z,14.56
2019-03-22T10:47:14.070Z,14.62
2019-03-22T10:48:14.025Z,14.64
2019-03-22T10:49:13.979Z,14.67
2019-03-22T10:50:14.034Z,14.67
2019-03-22T10:51:13.952Z,14.72
2019-03-22T10:52:13.926Z,14.67
2019-03-22T10:53:13.902Z,14.74
2019-03-22T10:54:13.903Z,14.77
2019-03-22T10:55:30.891Z,14.72
2019-03-22T10:56:13.848Z,14.72
2019-03-22T10:57:13.882Z,14.77
2019-03-22T10:58:21.788Z,14.86
2019-03-22T10:59:13.876Z,14.87
2019-03-22T11:00:13.891Z,14.87
2019-03-22T11:01:13.996Z,14.98
2019-03-22T11:01:27.619Z,15.04
2019-03-22T11:02:27.614Z,15
2019-03-22T11:03:27.654Z,15.04
2019-03-22T11:04:27.604Z,15.02
2019-03-22T11:05:27.627Z,15.02
2019-03-22T11:06:27.669Z,15.12
2019-03-22T11:07:27.602Z,15.11
2019-03-22T11:08:27.654Z,15.12
2019-03-22T11:09:27.667Z,15.15
2019-03-22T11:10:27.633Z,15.23
2019-03-22T11:11:27.595Z,15.23
2019-03-22T11:12:27.709Z,15.34
2019-03-22T11:13:27.613Z,15.39
2019-03-22T11:14:27.627Z,15.46
2019-03-22T11:15:27.604Z,15.53
2019-03-22T11:16:28.634Z,15.57
2019-03-22T11:17:27.578Z,15.63
2019-03-22T11:18:37.866Z,15.7
2019-03-22T11:19:27.630Z,15.73
2019-03-22T11:20:27.582Z,15.73
2019-03-22T11:21:27.607Z,15.77
2019-03-22T11:22:27.605Z,15.77
2019-03-22T11:23:27.629Z,15.81
2019-03-22T11:24:27.597Z,15.94
2019-03-22T11:25:27.599Z,16.04
2019-03-22T11:26:27.605Z,16.14
2019-03-22T11:27:27.575Z,16.14
2019-03-22T11:28:27.568Z,16.21
2019-03-22T11:29:27.593Z,16.25
2019-03-22T11:30:27.563Z,16.29
2019-03-22T11:31:39.943Z,16.33
2019-03-22T11:32:27.600Z,16.37
2019-03-22T11:33:27.554Z,16.43
2019-03-22T11:34:27.578Z,16.42
2019-03-22T11:35:27.562Z,16.52
2019-03-22T11:36:27.592Z,16.57
2019-03-22T11:37:27.582Z,16.57
2019-03-22T11:38:27.630Z,16.62
2019-03-22T11:39:27.570Z,16.67
2019-03-22T11:40:27.553Z,16.5
2019-03-22T11:41:27.624Z,16.45
2019-03-22T11:42:27.819Z,16.54
2019-03-22T11:43:27.548Z,16.57
2019-03-22T11:44:27.607Z,16.71
2019-03-22T11:45:27.574Z,16.71
2019-03-22T11:46:27.638Z,16.73
2019-03-22T11:47:27.570Z,16.73
2019-03-22T11:48:27.557Z,16.67
2019-03-22T11:49:27.602Z,16.8
2019-03-22T11:50:29.190Z,16.75
2019-03-22T11:51:27.547Z,16.73
2019-03-22T11:52:27.561Z,16.78
2019-03-22T11:53:27.563Z,16.81
2019-03-22T11:54:27.537Z,16.88
2019-03-22T11:55:27.561Z,16.97
2019-03-22T11:56:27.583Z,17.04
2019-03-22T11:57:27.532Z,17.09
2019-03-22T11:58:27.533Z,17.16
2019-03-22T11:59:27.564Z,17.14
2019-03-22T12:00:27.571Z,17.19
2019-03-22T12:01:27.594Z,17.23
2019-03-22T12:02:27.602Z,17.3
2019-03-22T12:03:27.538Z,17.36
2019-03-22T12:04:27.519Z,17.35
2019-03-22T12:05:27.517Z,17.29
2019-03-22T12:06:27.612Z,17.32
2019-03-22T12:07:27.530Z,17.37
2019-03-22T12:08:27.513Z,17.4
2019-03-22T12:09:27.529Z,17.46
2019-03-22T12:10:27.526Z,17.49
2019-03-22T12:11:27.601Z,17.58
2019-03-22T12:12:27.535Z,17.67
2019-03-22T12:13:27.511Z,17.66
2019-03-22T12:14:27.559Z,17.63
2019-03-22T12:15:27.505Z,17.64
2019-03-22T12:16:27.562Z,17.69
2019-03-22T12:17:27.548Z,17.77
2019-03-22T12:18:27.497Z,17.78
2019-03-22T12:19:27.525Z,17.81
2019-03-22T12:20:27.761Z,17.85
2019-03-22T12:21:27.585Z,17.87
2019-03-22T12:22:27.747Z,17.95
2019-03-22T12:23:27.509Z,18.05
2019-03-22T12:24:27.501Z,18.16
2019-03-22T12:25:27.504Z,18.11
2019-03-22T12:26:27.494Z,18.11
2019-03-22T12:27:37.023Z,18.09
2019-03-22T12:28:27.615Z,18.06
2019-03-22T12:29:28.386Z,18.15
2019-03-22T12:30:27.530Z,18.12
2019-03-22T12:31:27.486Z,18.19
2019-03-22T12:32:32.561Z,18.2
2019-03-22T12:33:27.497Z,18.19
2019-03-22T12:34:27.629Z,18.19
2019-03-22T12:35:28.081Z,18.2
2019-03-22T12:36:27.498Z,18.19
2019-03-22T12:37:27.549Z,18.17
2019-03-22T12:38:27.482Z,18.2
2019-03-22T12:39:27.501Z,18.16
2019-03-22T12:40:27.526Z,18.16
2019-03-22T12:41:27.488Z,18.15
2019-03-22T12:42:27.643Z,18.16
2019-03-22T12:43:27.497Z,18.22
2019-03-22T12:44:27.473Z,18.29
2019-03-22T12:45:27.510Z,18.35
2019-03-22T12:46:27.464Z,18.42
2019-03-22T12:47:27.476Z,18.57
2019-03-22T12:48:27.486Z,18.6
2019-03-22T12:49:27.471Z,18.67
2019-03-22T12:50:27.476Z,18.71
2019-03-22T12:51:27.475Z,18.75
2019-03-22T12:52:27.516Z,18.77
2019-03-22T12:53:27.478Z,18.82
2019-03-22T12:54:27.535Z,18.89
2019-03-22T12:55:27.489Z,18.87
2019-03-22T12:56:27.471Z,18.95
2019-03-22T12:57:27.456Z,18.92
2019-03-22T12:58:27.471Z,18.99
2019-03-22T12:59:27.475Z,19.02
2019-03-22T13:00:27.513Z,19.09
2019-03-22T13:01:27.447Z,19.17
2019-03-22T13:02:27.444Z,19.21
2019-03-22T13:03:27.580Z,19.23
2019-03-22T13:04:27.514Z,19.26
2019-03-22T13:05:27.472Z,19.37
2019-03-22T13:06:27.425Z,19.39
2019-03-22T13:07:27.479Z,19.32
2019-03-22T13:08:27.490Z,19.3
2019-03-22T13:09:27.447Z,19.27
2019-03-22T13:10:27.490Z,19.23
2019-03-22T13:11:27.441Z,19.27
2019-03-22T13:12:27.500Z,19.39